createdAt,value
2018-09-30T00:00:59.675Z,52.63
2018-09-30T00:03:28.330Z,45.20
2018-09-30T00:05:57.125Z,41.03
2018-09-30T00:08:25.710Z,40.60
2018-09-30T00:10:54.619Z,39.43
2018-09-30T00:13:23.338Z,42.83
2018-09-30T00:15:51.905Z,54.47
2018-09-30T00:18:20.484Z,65.60
2018-09-30T00:20:49.392Z,54.70
2018-09-30T00:23:17.998Z,54.23
2018-09-30T00:25:52.027Z,51.17
2018-09-30T00:28:21.439Z,46.83
2018-09-30T00:30:50.120Z,61.93
2018-09-30T00:33:19.225Z,79.43
2018-09-30T00:35:47.879Z,84.07
2018-09-30T00:38:16.430Z,75.73
2018-09-30T00:40:44.988Z,59.90
2018-09-30T00:43:13.525Z,48.70
2018-09-30T00:45:42.171Z,43.93
2018-09-30T00:48:10.726Z,42.63
2018-09-30T00:50:39.362Z,46.73
2018-09-30T00:53:08.020Z,40.43
2018-09-30T00:55:36.571Z,40.53
2018-09-30T00:58:05.131Z,39.17
2018-09-30T01:00:33.801Z,35.83
2018-09-30T01:03:02.392Z,38.07
2018-09-30T01:05:31.303Z,36.00
2018-09-30T01:07:59.861Z,35.40
2018-09-30T01:10:28.888Z,32.47
2018-09-30T01:12:59.335Z,33.67
2018-09-30T01:15:27.910Z,27.53
2018-09-30T01:17:56.525Z,30.03
2018-09-30T01:20:25.068Z,31.53
2018-09-30T01:22:53.697Z,30.07
2018-09-30T01:25:22.326Z,32.73
2018-09-30T01:27:50.998Z,29.83
2018-09-30T01:30:19.530Z,29.67
2018-09-30T01:32:48.154Z,28.73
2018-09-30T01:35:16.691Z,29.23
2018-09-30T01:37:45.294Z,30.43
2018-09-30T01:40:13.836Z,29.43
2018-09-30T01:42:42.494Z,32.23
2018-09-30T01:45:11.026Z,26.33
2018-09-30T01:47:39.696Z,28.53
2018-09-30T01:50:09.207Z,31.77
2018-09-30T01:52:50.461Z,28.30
2018-09-30T01:55:19.261Z,31.57
2018-09-30T01:57:47.854Z,34.37
2018-09-30T02:00:18.412Z,33.43
2018-09-30T02:02:47.466Z,32.30
2018-09-30T02:05:16.901Z,32.07
2018-09-30T02:07:46.597Z,31.67
2018-09-30T02:10:15.554Z,31.80
2018-09-30T02:12:44.162Z,30.07
2018-09-30T02:15:12.748Z,34.67
2018-09-30T02:17:41.446Z,32.47
2018-09-30T02:20:10.059Z,31.27
2018-09-30T02:22:38.626Z,30.30
2018-09-30T02:25:07.255Z,38.23
2018-09-30T02:27:35.804Z,31.30
2018-09-30T02:30:04.968Z,38.60
2018-09-30T02:32:33.569Z,44.57
2018-09-30T02:35:02.123Z,44.97
2018-09-30T02:37:30.809Z,38.10
2018-09-30T02:39:59.373Z,38.30
2018-09-30T02:42:27.972Z,37.53
2018-09-30T02:44:56.686Z,40.80
2018-09-30T02:47:25.331Z,43.07
2018-09-30T02:49:53.872Z,43.70
2018-09-30T02:52:22.404Z,42.73
2018-09-30T02:54:51.063Z,40.87
2018-09-30T02:57:19.833Z,41.60
2018-09-30T02:59:48.499Z,37.67
2018-09-30T03:02:17.059Z,44.40
2018-09-30T03:04:45.630Z,42.10
2018-09-30T03:07:19.433Z,43.83
2018-09-30T03:09:48.046Z,41.43
2018-09-30T03:12:16.654Z,44.47
2018-09-30T03:14:45.906Z,40.90
2018-09-30T03:30:41.106Z,37.13
2018-09-30T03:33:09.625Z,41.53
2018-09-30T03:35:38.234Z,42.07
2018-09-30T03:38:06.830Z,39.70
2018-09-30T03:40:35.429Z,42.87
2018-09-30T03:43:04.165Z,43.80
2018-09-30T03:45:32.800Z,43.87
2018-09-30T03:48:01.431Z,41.07
2018-09-30T03:50:30.035Z,40.43
2018-09-30T03:52:58.767Z,38.10
2018-09-30T03:55:27.300Z,39.53
2018-09-30T03:57:55.998Z,40.27
2018-09-30T04:00:24.529Z,39.87
2018-09-30T04:02:53.150Z,41.50
2018-09-30T04:05:21.929Z,39.30
2018-09-30T04:07:57.526Z,41.20
2018-09-30T04:10:26.080Z,36.70
2018-09-30T04:13:01.400Z,38.23
2018-09-30T04:15:30.011Z,36.77
2018-09-30T04:17:58.716Z,38.97
2018-09-30T04:20:27.210Z,36.57
2018-09-30T04:22:55.833Z,39.77
2018-09-30T04:25:24.363Z,34.50
2018-09-30T04:27:52.860Z,40.47
2018-09-30T04:30:21.439Z,42.40
2018-09-30T04:32:56.814Z,42.33
2018-09-30T04:35:25.303Z,42.10
2018-09-30T04:37:53.875Z,45.43
2018-09-30T04:40:22.438Z,43.23
2018-09-30T04:42:50.898Z,40.90
2018-09-30T04:45:19.439Z,41.00
2018-09-30T04:47:47.882Z,39.70
2018-09-30T04:50:16.374Z,36.77
2018-09-30T04:52:44.802Z,40.07
2018-09-30T04:55:13.271Z,34.73
2018-09-30T04:57:41.753Z,35.13
2018-09-30T05:00:10.275Z,34.63
2018-09-30T05:02:38.892Z,36.80
2018-09-30T05:05:07.378Z,38.33
2018-09-30T05:07:35.814Z,32.33
2018-09-30T05:10:04.362Z,36.60
2018-09-30T05:12:32.882Z,35.33
2018-09-30T05:15:01.489Z,36.07
2018-09-30T05:17:29.949Z,32.17
2018-09-30T05:19:58.497Z,37.13
2018-09-30T05:22:27.251Z,42.53
2018-09-30T05:24:55.740Z,42.53
2018-09-30T05:27:24.222Z,43.97
2018-09-30T05:29:52.661Z,42.40
2018-09-30T05:32:21.166Z,39.73
2018-09-30T05:34:49.625Z,42.63
2018-09-30T05:37:18.180Z,42.23
2018-09-30T05:39:46.712Z,43.23
2018-09-30T05:42:15.169Z,40.63
2018-09-30T05:44:43.690Z,41.87
2018-09-30T05:47:12.188Z,45.77
2018-09-30T05:49:41.127Z,43.20
2018-09-30T05:52:09.609Z,44.63
2018-09-30T05:54:38.258Z,46.83
2018-09-30T05:57:06.758Z,46.43
2018-09-30T05:59:35.233Z,52.43
2018-09-30T06:02:04.249Z,50.27
2018-09-30T06:04:32.853Z,58.13
2018-09-30T06:07:01.316Z,53.60
2018-09-30T06:09:29.798Z,47.00
2018-09-30T06:11:58.288Z,46.27
2018-09-30T06:14:26.742Z,43.53
2018-09-30T06:16:55.259Z,42.47
2018-09-30T06:19:23.747Z,37.57
2018-09-30T06:21:52.254Z,40.20
2018-09-30T06:24:20.910Z,40.77
2018-09-30T06:26:49.415Z,40.57
2018-09-30T06:29:18.032Z,36.27
2018-09-30T06:31:46.795Z,41.47
2018-09-30T06:34:15.191Z,38.67
2018-09-30T06:36:43.816Z,44.87
2018-09-30T06:39:12.377Z,39.63
2018-09-30T06:41:41.062Z,43.83
2018-09-30T06:44:09.577Z,33.87
2018-09-30T06:46:38.167Z,34.50
2018-09-30T06:49:06.747Z,31.40
2018-09-30T06:51:35.282Z,28.83
2018-09-30T06:54:03.838Z,30.40
2018-09-30T06:56:32.626Z,26.47
2018-09-30T06:59:01.437Z,28.50
2018-09-30T07:01:29.940Z,28.57
2018-09-30T07:03:58.487Z,26.77
2018-09-30T07:06:27.207Z,27.77
2018-09-30T07:08:55.969Z,26.13
2018-09-30T07:11:24.702Z,25.50
2018-09-30T07:13:53.319Z,24.47
2018-09-30T07:16:22.030Z,23.63
2018-09-30T07:18:50.549Z,27.77
2018-09-30T07:21:19.283Z,24.50
2018-09-30T07:23:48.147Z,24.97
2018-09-30T07:26:17.023Z,26.60
2018-09-30T07:28:45.748Z,21.67
2018-09-30T07:31:14.249Z,26.77
2018-09-30T07:33:42.855Z,30.67
2018-09-30T07:36:11.525Z,25.93
2018-09-30T07:38:40.075Z,20.57
2018-09-30T07:41:08.949Z,21.63
2018-09-30T07:43:37.618Z,21.50
2018-09-30T07:46:06.134Z,19.33
2018-09-30T07:48:35.144Z,17.20
2018-09-30T07:51:03.790Z,20.10
2018-09-30T07:53:33.377Z,17.33
2018-09-30T07:56:02.030Z,16.40
2018-09-30T07:58:30.667Z,17.87
2018-09-30T08:00:59.272Z,15.27
2018-09-30T08:03:27.787Z,13.93
2018-09-30T08:05:56.436Z,15.70
2018-09-30T08:08:24.977Z,16.77
2018-09-30T08:10:53.583Z,12.50
2018-09-30T08:13:22.094Z,14.50
2018-09-30T08:15:51.084Z,15.20
2018-09-30T08:18:19.782Z,14.77
2018-09-30T08:20:48.361Z,13.57
2018-09-30T08:23:17.118Z,9.80
2018-09-30T08:25:45.602Z,12.17
2018-09-30T08:28:14.174Z,13.57
2018-09-30T08:30:42.870Z,10.30
2018-09-30T08:33:11.319Z,12.07
2018-09-30T08:35:40.055Z,10.00
2018-09-30T08:38:14.096Z,10.27
2018-09-30T08:40:48.130Z,10.03
2018-09-30T08:43:17.069Z,7.40
2018-09-30T08:45:45.592Z,8.43
2018-09-30T08:48:14.097Z,7.40
2018-09-30T08:50:42.603Z,9.73
2018-09-30T08:53:11.877Z,8.73
2018-09-30T08:55:40.644Z,9.00
2018-09-30T08:58:09.995Z,5.13
2018-09-30T09:00:38.586Z,6.00
2018-09-30T09:03:07.614Z,6.10
2018-09-30T09:05:36.134Z,6.03
2018-09-30T09:08:04.687Z,5.53
2018-09-30T09:10:33.455Z,5.30
2018-09-30T09:13:02.075Z,4.97
2018-09-30T09:15:30.817Z,5.27
2018-09-30T09:17:59.520Z,9.07
2018-09-30T09:20:28.528Z,4.80
2018-09-30T09:22:57.496Z,5.93
2018-09-30T09:25:26.183Z,5.70
2018-09-30T09:27:54.841Z,6.03
2018-09-30T09:30:23.407Z,4.20
2018-09-30T09:32:51.980Z,5.67
2018-09-30T09:35:20.715Z,5.80
2018-09-30T09:37:49.413Z,5.30
2018-09-30T09:40:17.964Z,5.03
2018-09-30T09:42:46.551Z,5.67
2018-09-30T09:45:15.193Z,5.20
2018-09-30T09:47:43.818Z,5.97
2018-09-30T09:50:12.366Z,4.50
2018-09-30T09:52:40.978Z,5.10
2018-09-30T09:55:09.642Z,4.97
2018-09-30T09:57:38.169Z,5.03
2018-09-30T10:00:08.035Z,4.83
2018-09-30T10:02:36.713Z,5.33
2018-09-30T10:05:05.345Z,4.60
2018-09-30T10:07:33.923Z,4.77
2018-09-30T10:10:02.567Z,4.27
2018-09-30T10:12:31.193Z,4.10
2018-09-30T10:14:59.755Z,4.67
2018-09-30T10:17:28.499Z,4.73
2018-09-30T10:19:57.033Z,5.23
2018-09-30T10:22:26.205Z,5.33
2018-09-30T10:24:55.120Z,4.23
2018-09-30T10:27:23.893Z,4.23
2018-09-30T10:29:52.593Z,5.77
2018-09-30T10:32:21.261Z,4.73
2018-09-30T10:34:49.851Z,4.90
2018-09-30T10:37:18.579Z,3.87
2018-09-30T10:39:47.282Z,4.53
2018-09-30T10:42:15.798Z,5.13
2018-09-30T10:44:44.383Z,4.37
2018-09-30T10:47:12.936Z,4.57
2018-09-30T10:49:41.591Z,5.00
2018-09-30T10:52:10.195Z,5.27
2018-09-30T10:54:38.742Z,7.07
2018-09-30T10:57:07.473Z,5.00
2018-09-30T10:59:36.367Z,4.67
2018-09-30T11:02:05.207Z,5.20
2018-09-30T11:04:33.756Z,3.80
2018-09-30T11:07:02.692Z,4.40
2018-09-30T11:09:31.578Z,4.43
2018-09-30T11:12:00.467Z,3.73
2018-09-30T11:14:29.263Z,4.37
2018-09-30T11:16:58.052Z,5.07
2018-09-30T11:19:26.608Z,4.40
2018-09-30T11:21:55.274Z,6.30
2018-09-30T11:24:23.992Z,4.67
2018-09-30T11:26:52.495Z,6.10
2018-09-30T11:29:21.219Z,5.10
2018-09-30T11:31:49.932Z,5.40
2018-09-30T11:34:18.482Z,4.10
2018-09-30T11:36:47.402Z,5.07
2018-09-30T11:39:16.107Z,4.87
2018-09-30T11:41:44.793Z,3.73
2018-09-30T11:44:13.837Z,5.33
2018-09-30T11:46:42.362Z,4.30
2018-09-30T11:49:11.053Z,3.53
2018-09-30T11:51:39.828Z,4.23
2018-09-30T11:54:09.263Z,3.67
2018-09-30T11:56:37.811Z,4.23
2018-09-30T11:59:07.303Z,3.70
2018-09-30T12:01:36.168Z,4.30
2018-09-30T12:04:04.755Z,3.67
2018-09-30T12:06:33.360Z,3.80
2018-09-30T12:09:02.040Z,3.50
2018-09-30T12:11:30.590Z,3.83
2018-09-30T12:13:59.287Z,4.10
2018-09-30T12:16:28.032Z,3.40
2018-09-30T12:18:56.783Z,3.13
2018-09-30T12:21:26.528Z,4.57
2018-09-30T12:23:55.238Z,3.97
2018-09-30T12:26:23.819Z,3.07
2018-09-30T12:28:52.895Z,3.23
2018-09-30T12:31:21.608Z,3.33
2018-09-30T12:33:50.188Z,3.33
2018-09-30T12:36:18.852Z,4.00
2018-09-30T12:38:47.471Z,3.20
2018-09-30T12:41:16.129Z,3.37
2018-09-30T12:43:44.638Z,4.03
2018-09-30T12:46:13.820Z,4.10
2018-09-30T12:48:42.664Z,3.93
2018-09-30T12:51:11.371Z,3.80
2018-09-30T12:53:40.017Z,5.83
2018-09-30T12:56:08.539Z,4.20
2018-09-30T12:58:37.104Z,4.80
2018-09-30T13:01:06.528Z,5.00
2018-09-30T13:03:35.534Z,5.80
2018-09-30T13:06:04.195Z,3.37
2018-09-30T13:08:32.757Z,5.03
2018-09-30T13:11:01.277Z,5.00
2018-09-30T13:13:30.318Z,3.50
2018-09-30T13:15:58.932Z,3.93
2018-09-30T13:18:28.159Z,4.13
2018-09-30T13:20:56.810Z,5.83
2018-09-30T13:23:25.480Z,3.63
2018-09-30T13:25:54.287Z,3.67
2018-09-30T13:28:23.300Z,3.90
2018-09-30T13:30:51.985Z,3.80
2018-09-30T13:33:20.580Z,3.80
2018-09-30T13:35:49.248Z,3.40
2018-09-30T13:38:17.958Z,3.27
2018-09-30T13:40:46.583Z,3.10
2018-09-30T13:43:15.430Z,3.57
2018-09-30T13:45:44.139Z,3.57
2018-09-30T13:48:12.695Z,5.97
2018-09-30T13:50:41.362Z,2.90
2018-09-30T13:53:10.389Z,9.03
2018-09-30T13:55:38.939Z,5.87
2018-09-30T13:58:08.244Z,4.07
2018-09-30T14:00:36.781Z,3.43
2018-09-30T14:03:05.373Z,5.70
2018-09-30T14:05:33.943Z,3.63
2018-09-30T14:08:02.585Z,3.70
2018-09-30T14:10:31.093Z,4.70
2018-09-30T14:12:59.739Z,4.77
2018-09-30T14:15:29.449Z,4.23
2018-09-30T14:17:58.085Z,6.67
2018-09-30T14:20:26.700Z,5.90
2018-09-30T14:22:55.252Z,5.70
2018-09-30T14:25:23.768Z,5.47
2018-09-30T14:27:52.334Z,6.43
2018-09-30T14:30:20.839Z,4.33
2018-09-30T14:32:49.629Z,6.10
2018-09-30T14:35:18.142Z,4.90
2018-09-30T14:37:46.713Z,5.03
2018-09-30T14:40:15.604Z,5.80
2018-09-30T14:42:44.241Z,6.10
2018-09-30T14:45:12.881Z,5.50
2018-09-30T14:47:41.831Z,5.90
2018-09-30T14:50:10.372Z,7.60
2018-09-30T14:52:39.095Z,6.73
2018-09-30T14:55:07.657Z,6.07
2018-09-30T14:57:36.189Z,7.17
2018-09-30T15:00:04.980Z,15.40
2018-09-30T15:02:33.785Z,5.43
2018-09-30T15:05:02.450Z,6.47
2018-09-30T15:07:31.112Z,29.90
2018-09-30T15:09:59.824Z,7.37
2018-09-30T15:12:28.935Z,5.47
2018-09-30T15:14:57.640Z,5.97
2018-09-30T15:17:26.313Z,5.17
2018-09-30T15:19:54.976Z,5.33
2018-09-30T15:22:23.640Z,5.87
2018-09-30T15:24:52.275Z,5.63
2018-09-30T15:27:20.788Z,6.03
2018-09-30T15:29:49.829Z,5.93
2018-09-30T15:32:18.342Z,7.93
2018-09-30T15:34:46.875Z,9.17
2018-09-30T15:37:15.443Z,8.47
2018-09-30T15:39:43.956Z,5.40
2018-09-30T15:42:12.467Z,5.00
2018-09-30T15:44:41.130Z,7.40
2018-09-30T15:47:09.650Z,13.87
2018-09-30T15:49:38.361Z,10.00
2018-09-30T15:52:07.053Z,6.27
2018-09-30T15:54:35.578Z,5.47
2018-09-30T15:57:04.398Z,6.63
2018-09-30T15:59:33.168Z,6.37
2018-09-30T16:02:01.702Z,6.73
2018-09-30T16:04:30.677Z,5.60
2018-09-30T16:06:59.194Z,4.77
2018-09-30T16:09:29.079Z,5.13
2018-09-30T16:11:57.883Z,15.33
2018-09-30T16:14:26.493Z,12.87
2018-09-30T16:16:55.266Z,7.17
2018-09-30T16:19:23.782Z,6.63
2018-09-30T16:21:52.550Z,5.97
2018-09-30T16:24:21.107Z,6.63
2018-09-30T16:26:49.639Z,7.87
2018-09-30T16:29:18.262Z,22.20
2018-09-30T16:31:47.210Z,26.53
2018-09-30T16:34:16.107Z,33.97
2018-09-30T16:36:44.600Z,28.50
2018-09-30T16:39:13.125Z,38.03
2018-09-30T16:41:41.628Z,24.63
2018-09-30T16:44:10.597Z,57.20
2018-09-30T16:46:40.252Z,122.70
2018-09-30T16:49:08.887Z,142.80
2018-09-30T16:51:37.400Z,54.23
2018-09-30T16:54:06.370Z,58.60
2018-09-30T16:56:35.019Z,63.57
2018-09-30T16:59:04.075Z,70.83
2018-09-30T17:01:32.839Z,80.27
2018-09-30T17:04:01.442Z,91.80
2018-09-30T17:06:30.128Z,70.70
2018-09-30T17:08:58.681Z,30.37
2018-09-30T17:11:28.174Z,23.73
2018-09-30T17:13:56.843Z,27.47
2018-09-30T17:16:25.475Z,14.20
2018-09-30T17:18:54.023Z,60.27
2018-09-30T17:21:22.642Z,64.77
2018-09-30T17:23:51.194Z,49.77
2018-09-30T17:26:19.717Z,45.73
2018-09-30T17:28:48.247Z,92.70
2018-09-30T17:31:17.191Z,84.77
2018-09-30T17:33:45.719Z,77.50
2018-09-30T17:36:14.553Z,36.20
2018-09-30T17:38:43.501Z,24.17
2018-09-30T17:41:12.543Z,22.37
2018-09-30T17:43:41.322Z,19.53
2018-09-30T17:46:10.232Z,17.67
2018-09-30T17:48:38.767Z,15.07
2018-09-30T17:51:07.547Z,34.83
2018-09-30T17:53:36.228Z,34.87
2018-09-30T17:56:05.459Z,36.03
2018-09-30T17:58:34.042Z,31.67
2018-09-30T18:01:02.626Z,30.10
2018-09-30T18:03:31.158Z,32.53
2018-09-30T18:05:59.728Z,27.00
2018-09-30T18:08:28.296Z,24.40
2018-09-30T18:10:57.054Z,29.13
2018-09-30T18:13:25.848Z,31.93
2018-09-30T18:15:54.544Z,42.33
2018-09-30T18:18:23.300Z,42.77
2018-09-30T18:20:52.049Z,34.73
2018-09-30T18:23:20.586Z,38.93
2018-09-30T18:25:49.135Z,36.63
2018-09-30T18:28:17.689Z,41.27
2018-09-30T18:30:46.347Z,39.80
2018-09-30T18:33:14.888Z,40.63
2018-09-30T18:35:43.574Z,36.00
2018-09-30T18:38:12.341Z,28.93
2018-09-30T18:40:43.935Z,32.20
2018-09-30T18:43:13.165Z,22.17
2018-09-30T18:45:42.230Z,26.73
2018-09-30T18:48:11.454Z,28.20
2018-09-30T18:50:40.541Z,24.70
2018-09-30T18:53:09.076Z,26.80
2018-09-30T18:55:37.708Z,34.07
2018-09-30T18:58:06.507Z,36.00
2018-09-30T19:00:35.184Z,29.37
2018-09-30T19:03:03.958Z,28.20
2018-09-30T19:05:32.719Z,29.40
2018-09-30T19:08:01.446Z,31.87
2018-09-30T19:10:30.056Z,38.40
2018-09-30T19:12:58.717Z,28.63
2018-09-30T19:15:27.286Z,31.50
2018-09-30T19:17:55.885Z,30.90
2018-09-30T19:20:24.645Z,33.10
2018-09-30T19:22:53.564Z,39.47
2018-09-30T19:25:22.321Z,42.20
2018-09-30T19:27:51.154Z,43.00
2018-09-30T19:30:19.864Z,44.37
2018-09-30T19:32:49.439Z,49.47
2018-09-30T19:35:18.204Z,48.40
2018-09-30T19:37:46.781Z,45.87
2018-09-30T19:40:15.347Z,44.97
2018-09-30T19:42:43.912Z,39.37
2018-09-30T19:45:12.455Z,37.10
2018-09-30T19:47:41.133Z,37.23
2018-09-30T19:50:10.519Z,42.50
2018-09-30T19:52:39.308Z,39.53
2018-09-30T19:55:08.183Z,44.30
2018-09-30T19:57:37.740Z,45.30
2018-09-30T20:00:07.265Z,46.77
2018-09-30T20:02:35.944Z,41.47
2018-09-30T20:05:04.971Z,40.90
2018-09-30T20:07:33.864Z,40.67
2018-09-30T20:10:02.593Z,40.17
2018-09-30T20:12:31.682Z,40.63
2018-09-30T20:15:00.639Z,36.53
2018-09-30T20:17:30.423Z,38.20
2018-09-30T20:19:59.059Z,40.00
2018-09-30T20:22:27.611Z,41.77
2018-09-30T20:32:31.104Z,47.17
2018-09-30T20:35:00.176Z,47.90
2018-09-30T20:38:04.471Z,47.10
2018-09-30T20:48:09.950Z,47.07
2018-09-30T20:54:36.158Z,51.47
2018-09-30T21:28:47.683Z,35.63
2018-09-30T21:31:27.243Z,32.73
2018-09-30T21:34:00.425Z,34.83
2018-09-30T21:36:54.580Z,36.33
2018-09-30T21:48:25.325Z,37.30
2018-09-30T21:50:54.099Z,35.87
2018-09-30T21:53:22.722Z,37.43
2018-09-30T21:55:51.353Z,38.40
2018-09-30T21:58:19.913Z,37.50
2018-09-30T22:00:54.144Z,39.03
2018-09-30T22:03:22.810Z,34.90
2018-09-30T22:05:51.470Z,33.33
2018-09-30T22:08:20.131Z,34.70
2018-09-30T22:10:48.823Z,28.43
2018-09-30T22:13:17.477Z,34.30
2018-09-30T22:15:46.296Z,36.23
2018-09-30T22:18:14.930Z,28.43
2018-09-30T22:20:43.614Z,29.50
2018-09-30T22:23:12.261Z,34.57
2018-09-30T22:25:41.406Z,34.03
2018-09-30T22:28:10.207Z,31.70
2018-09-30T22:30:38.859Z,33.57
2018-09-30T22:33:07.583Z,29.87
2018-09-30T22:35:36.674Z,29.97
2018-09-30T22:38:05.325Z,25.63
2018-09-30T22:40:33.854Z,29.00
2018-09-30T22:43:02.501Z,28.90
2018-09-30T22:45:31.382Z,31.87
2018-09-30T22:48:00.095Z,26.57
2018-09-30T22:50:28.723Z,26.20
2018-09-30T22:52:58.106Z,26.67
2018-09-30T22:55:26.854Z,27.07
2018-09-30T22:57:55.400Z,24.27
2018-09-30T23:00:24.107Z,23.47
2018-09-30T23:02:53.038Z,23.83
2018-09-30T23:05:22.599Z,25.37
2018-09-30T23:07:51.370Z,22.77
2018-09-30T23:10:20.043Z,23.80
2018-09-30T23:12:48.641Z,28.80
2018-09-30T23:15:17.198Z,28.40
2018-09-30T23:17:45.774Z,25.80
2018-09-30T23:20:15.246Z,24.90
2018-09-30T23:22:44.376Z,25.80
2018-09-30T23:25:13.042Z,26.97
2018-09-30T23:27:42.518Z,31.07
2018-09-30T23:30:11.182Z,35.00
2018-09-30T23:32:40.124Z,28.37
2018-09-30T23:35:09.062Z,27.40
2018-09-30T23:37:37.737Z,27.47
2018-09-30T23:40:07.071Z,25.53
2018-09-30T23:42:36.408Z,20.63
2018-09-30T23:45:05.318Z,19.77
2018-09-30T23:47:33.970Z,24.50
2018-09-30T23:50:02.563Z,25.07
2018-09-30T23:52:31.221Z,38.67
2018-09-30T23:54:59.790Z,31.03
2018-09-30T23:57:28.521Z,36.03
2018-09-30T23:59:57.486Z,31.10
